Strona główna
METAR-TAF:

METAR-TAF

Lotnisko :

Capo Mele

Andora, Włochy

Szerokość geograficzna: 43-57N, Długość geograficzna: 008-10E, wysokość: 220 m

Aktualna obserwacja pogody

Raport powstał 28 minut temu, godzina 05:55 UTC
Wiatr 2 kt od południowy zachód
Temperatura 9°C
Wilgotność 43%
Ciśnienie 1020 hPa
Widzialność 10 km lub więcej
Brak chmur poniżej 1500 m i brak chmur cumulonimbus

METAR: LIMU 180555Z 23002KT CAVOK 09/M03 Q1020 RMK SKC QUK / QUL / VIS MAR 30 KM VIS MIN 9999

czas: 07:23 (06:23 UTC)


TAF: brakujący

Obserwacja i prognoza pogody dla ponad 4000 lotnisk (raport METAR i TAF).

Dostępne stacje oznaczono żółtymi i czerwonymi punktami na mapie.

Najedź kursorem aby zobaczyć nazwę stacji.

Kliknij aby zobaczyć obserwacje i prognozy pogody.

Aby zmienić mapę: kliknij na zielony przycisk z czarnym krzyżykiem, aby powiększyć; na zielony przycisk z myślnikiem, aby pomniejszyć; na zielone strzałki, aby przejść do map sąsiednich.


METAR-TAF: